sensor_id;sensor_type;location;lat;lon;timestamp;pressure;altitude;pressure_sealevel;temperature;humidity
23677;BME280;31493;49.058;12.190;2023-07-13T00:01:52;95957.78;;;18.18;78.96
23677;BME280;31493;49.058;12.190;2023-07-13T00:04:21;95961.72;;;18.14;79.82
23677;BME280;31493;49.058;12.190;2023-07-13T00:06:51;95956.34;;;18.07;79.30
23677;BME280;31493;49.058;12.190;2023-07-13T00:09:19;95967.00;;;18.14;79.11
23677;BME280;31493;49.058;12.190;2023-07-13T00:11:51;95970.78;;;18.11;79.47
23677;BME280;31493;49.058;12.190;2023-07-13T00:14:20;95979.84;;;18.09;79.37
23677;BME280;31493;49.058;12.190;2023-07-13T00:16:47;95981.66;;;18.08;79.48
23677;BME280;31493;49.058;12.190;2023-07-13T00:19:14;95976.25;;;18.02;79.65
23677;BME280;31493;49.058;12.190;2023-07-13T00:21:41;95983.84;;;17.97;80.06
23677;BME280;31493;49.058;12.190;2023-07-13T00:24:11;95977.13;;;17.94;80.63
23677;BME280;31493;49.058;12.190;2023-07-13T00:26:40;95982.69;;;17.91;80.75
23677;BME280;31493;49.058;12.190;2023-07-13T00:29:11;95987.66;;;17.86;80.91
23677;BME280;31493;49.058;12.190;2023-07-13T00:31:39;95974.63;;;17.92;81.33
23677;BME280;31493;49.058;12.190;2023-07-13T00:34:07;95977.78;;;17.88;81.09
23677;BME280;31493;49.058;12.190;2023-07-13T00:36:34;95972.84;;;17.85;81.28
23677;BME280;31493;49.058;12.190;2023-07-13T00:39:01;95962.50;;;17.83;81.34
23677;BME280;31493;49.058;12.190;2023-07-13T00:41:29;95965.63;;;17.87;80.91
23677;BME280;31493;49.058;12.190;2023-07-13T00:43:56;95959.88;;;17.83;81.26
23677;BME280;31493;49.058;12.190;2023-07-13T00:46:25;95970.41;;;17.83;81.45
23677;BME280;31493;49.058;12.190;2023-07-13T00:48:56;95954.44;;;17.85;81.29
23677;BME280;31493;49.058;12.190;2023-07-13T00:51:30;95953.31;;;17.79;81.92
23677;BME280;31493;49.058;12.190;2023-07-13T00:54:00;95967.00;;;17.75;81.94
23677;BME280;31493;49.058;12.190;2023-07-13T00:56:29;95969.44;;;17.68;81.75
23677;BME280;31493;49.058;12.190;2023-07-13T00:58:57;95983.94;;;17.64;82.42
23677;BME280;31493;49.058;12.190;2023-07-13T01:01:24;95989.53;;;17.61;82.49
23677;BME280;31493;49.058;12.190;2023-07-13T01:03:51;95990.84;;;17.65;82.13
23677;BME280;31493;49.058;12.190;2023-07-13T01:06:21;95981.28;;;17.72;82.90
23677;BME280;31493;49.058;12.190;2023-07-13T01:08:48;95982.09;;;17.73;82.14
23677;BME280;31493;49.058;12.190;2023-07-13T01:11:18;95989.19;;;17.72;82.99
23677;BME280;31493;49.058;12.190;2023-07-13T01:13:47;95979.81;;;17.61;82.97
23677;BME280;31493;49.058;12.190;2023-07-13T01:16:21;95973.25;;;17.65;83.19
23677;BME280;31493;49.058;12.190;2023-07-13T01:18:49;95980.31;;;17.65;83.16
23677;BME280;31493;49.058;12.190;2023-07-13T01:21:17;95970.97;;;17.62;83.42
23677;BME280;31493;49.058;12.190;2023-07-13T01:23:45;95972.47;;;17.57;83.15
23677;BME280;31493;49.058;12.190;2023-07-13T01:26:12;95974.28;;;17.56;83.24
23677;BME280;31493;49.058;12.190;2023-07-13T01:28:39;95965.03;;;17.60;82.90
23677;BME280;31493;49.058;12.190;2023-07-13T01:31:07;95965.53;;;17.56;83.46
23677;BME280;31493;49.058;12.190;2023-07-13T01:33:34;95976.91;;;17.56;83.04
23677;BME280;31493;49.058;12.190;2023-07-13T01:36:01;95972.63;;;17.55;83.24
23677;BME280;31493;49.058;12.190;2023-07-13T01:38:29;95966.03;;;17.59;83.55
23677;BME280;31493;49.058;12.190;2023-07-13T01:40:56;95958.66;;;17.55;83.66
23677;BME280;31493;49.058;12.190;2023-07-13T01:43:23;95956.84;;;17.55;83.86
23677;BME280;31493;49.058;12.190;2023-07-13T01:45:50;95969.16;;;17.55;83.60
23677;BME280;31493;49.058;12.190;2023-07-13T01:48:17;95959.16;;;17.50;83.64
23677;BME280;31493;49.058;12.190;2023-07-13T01:50:47;95961.63;;;17.52;83.48
23677;BME280;31493;49.058;12.190;2023-07-13T01:53:14;95942.72;;;17.48;83.53
23677;BME280;31493;49.058;12.190;2023-07-13T01:55:42;95947.47;;;17.45;84.00
23677;BME280;31493;49.058;12.190;2023-07-13T01:58:09;95946.34;;;17.31;84.87
23677;BME280;31493;49.058;12.190;2023-07-13T02:00:36;95946.03;;;17.26;85.08
23677;BME280;31493;49.058;12.190;2023-07-13T02:03:03;95956.22;;;17.29;84.96
23677;BME280;31493;49.058;12.190;2023-07-13T02:05:30;95957.53;;;17.33;84.74
23677;BME280;31493;49.058;12.190;2023-07-13T02:07:57;95953.56;;;17.37;85.03
23677;BME280;31493;49.058;12.190;2023-07-13T02:10:24;95952.91;;;17.35;84.62
23677;BME280;31493;49.058;12.190;2023-07-13T02:12:53;95950.78;;;17.47;84.83
23677;BME280;31493;49.058;12.190;2023-07-13T02:15:20;95946.34;;;17.47;83.96
23677;BME280;31493;49.058;12.190;2023-07-13T02:17:47;95955.50;;;17.43;84.24
23677;BME280;31493;49.058;12.190;2023-07-13T02:20:14;95956.50;;;17.42;84.22
23677;BME280;31493;49.058;12.190;2023-07-13T02:22:41;95954.69;;;17.43;84.10
23677;BME280;31493;49.058;12.190;2023-07-13T02:25:08;95962.28;;;17.46;84.42
23677;BME280;31493;49.058;12.190;2023-07-13T02:27:35;95949.78;;;17.31;85.08
23677;BME280;31493;49.058;12.190;2023-07-13T02:30:05;95957.66;;;17.31;84.60
23677;BME280;31493;49.058;12.190;2023-07-13T02:32:32;95956.69;;;17.24;85.00
23677;BME280;31493;49.058;12.190;2023-07-13T02:34:59;95970.50;;;17.18;84.73
23677;BME280;31493;49.058;12.190;2023-07-13T02:37:26;95965.41;;;17.17;84.75
23677;BME280;31493;49.058;12.190;2023-07-13T02:39:53;95966.06;;;17.19;85.27
23677;BME280;31493;49.058;12.190;2023-07-13T02:42:20;95961.19;;;17.07;85.36
23677;BME280;31493;49.058;12.190;2023-07-13T02:44:47;95970.34;;;17.11;85.51
23677;BME280;31493;49.058;12.190;2023-07-13T02:47:17;95974.91;;;17.58;83.83
23677;BME280;31493;49.058;12.190;2023-07-13T02:49:44;95974.97;;;17.26;83.95
23677;BME280;31493;49.058;12.190;2023-07-13T02:52:11;95975.63;;;17.20;83.67
23677;BME280;31493;49.058;12.190;2023-07-13T02:54:38;95972.97;;;17.11;84.31
23677;BME280;31493;49.058;12.190;2023-07-13T02:57:06;95970.69;;;17.08;84.93
23677;BME280;31493;49.058;12.190;2023-07-13T02:59:33;95970.03;;;17.06;84.15
23677;BME280;31493;49.058;12.190;2023-07-13T03:02:01;95967.38;;;17.06;83.80
23677;BME280;31493;49.058;12.190;2023-07-13T03:04:29;95966.72;;;17.12;84.05
23677;BME280;31493;49.058;12.190;2023-07-13T03:06:56;95969.34;;;17.12;83.71
23677;BME280;31493;49.058;12.190;2023-07-13T03:09:24;95963.31;;;17.04;84.05
23677;BME280;31493;49.058;12.190;2023-07-13T03:11:52;95973.47;;;16.99;83.82
23677;BME280;31493;49.058;12.190;2023-07-13T03:14:19;95982.50;;;17.04;82.87
23677;BME280;31493;49.058;12.190;2023-07-13T03:16:47;95977.44;;;17.03;83.54
23677;BME280;31493;49.058;12.190;2023-07-13T03:19:14;95987.59;;;16.98;83.17
23677;BME280;31493;49.058;12.190;2023-07-13T03:21:42;95992.84;;;16.98;83.60
23677;BME280;31493;49.058;12.190;2023-07-13T03:24:09;95985.97;;;16.97;82.90
23677;BME280;31493;49.058;12.190;2023-07-13T03:26:37;95994.84;;;16.96;83.09
23677;BME280;31493;49.058;12.190;2023-07-13T03:29:04;95996.63;;;16.87;83.84
23677;BME280;31493;49.058;12.190;2023-07-13T03:31:34;96007.97;;;16.96;83.38
23677;BME280;31493;49.058;12.190;2023-07-13T03:34:02;95997.63;;;16.86;83.75
23677;BME280;31493;49.058;12.190;2023-07-13T03:36:30;96006.97;;;16.80;84.02
23677;BME280;31493;49.058;12.190;2023-07-13T03:39:01;96000.25;;;16.78;85.23
23677;BME280;31493;49.058;12.190;2023-07-13T03:41:28;95999.25;;;16.87;84.54
23677;BME280;31493;49.058;12.190;2023-07-13T03:43:56;96016.13;;;16.76;84.46
23677;BME280;31493;49.058;12.190;2023-07-13T03:46:23;96016.34;;;16.83;85.16
23677;BME280;31493;49.058;12.190;2023-07-13T03:48:50;96027.81;;;16.82;84.68
23677;BME280;31493;49.058;12.190;2023-07-13T03:51:18;96019.97;;;16.90;85.20
23677;BME280;31493;49.058;12.190;2023-07-13T03:53:46;96025.53;;;16.79;84.31
23677;BME280;31493;49.058;12.190;2023-07-13T03:56:16;96030.13;;;16.85;84.71
23677;BME280;31493;49.058;12.190;2023-07-13T03:58:45;96035.84;;;16.89;84.00
23677;BME280;31493;49.058;12.190;2023-07-13T04:01:13;96031.59;;;16.79;84.18
23677;BME280;31493;49.058;12.190;2023-07-13T04:03:40;96037.66;;;16.80;83.78
23677;BME280;31493;49.058;12.190;2023-07-13T04:06:14;96022.41;;;16.92;84.21
23677;BME280;31493;49.058;12.190;2023-07-13T04:08:47;96038.34;;;17.39;82.28
23677;BME280;31493;49.058;12.190;2023-07-13T04:11:16;96028.81;;;16.97;82.44
23677;BME280;31493;49.058;12.190;2023-07-13T04:13:43;96036.84;;;16.88;82.94
23677;BME280;31493;49.058;12.190;2023-07-13T04:16:10;96032.09;;;16.83;83.21
23677;BME280;31493;49.058;12.190;2023-07-13T04:18:37;96022.25;;;16.85;83.14
23677;BME280;31493;49.058;12.190;2023-07-13T04:21:04;96029.13;;;16.86;83.32
23677;BME280;31493;49.058;12.190;2023-07-13T04:23:32;96029.13;;;16.86;83.16
23677;BME280;31493;49.058;12.190;2023-07-13T04:25:59;96030.63;;;16.97;83.10
23677;BME280;31493;49.058;12.190;2023-07-13T04:28:27;96036.38;;;17.00;82.71
23677;BME280;31493;49.058;12.190;2023-07-13T04:30:55;96035.41;;;17.09;81.80
23677;BME280;31493;49.058;12.190;2023-07-13T04:33:22;96036.38;;;17.08;82.26
23677;BME280;31493;49.058;12.190;2023-07-13T04:35:50;96029.97;;;17.19;82.04
23677;BME280;31493;49.058;12.190;2023-07-13T04:38:22;96035.56;;;17.24;82.15
23677;BME280;31493;49.058;12.190;2023-07-13T04:40:50;96044.94;;;17.27;81.48
23677;BME280;31493;49.058;12.190;2023-07-13T04:43:18;96031.44;;;17.30;80.63
23677;BME280;31493;49.058;12.190;2023-07-13T04:45:46;96037.84;;;17.35;80.64
23677;BME280;31493;49.058;12.190;2023-07-13T04:48:13;96040.66;;;17.34;78.49
23677;BME280;31493;49.058;12.190;2023-07-13T04:50:40;96035.56;;;17.32;79.16
23677;BME280;31493;49.058;12.190;2023-07-13T04:53:09;96037.22;;;17.33;79.02
23677;BME280;31493;49.058;12.190;2023-07-13T04:55:37;96049.88;;;17.38;79.19
23677;BME280;31493;49.058;12.190;2023-07-13T04:58:04;96044.59;;;17.38;79.36
23677;BME280;31493;49.058;12.190;2023-07-13T05:00:31;96055.63;;;17.33;79.98
23677;BME280;31493;49.058;12.190;2023-07-13T05:03:00;96064.16;;;17.35;80.12
23677;BME280;31493;49.058;12.190;2023-07-13T05:05:27;96062.66;;;17.41;79.41
23677;BME280;31493;49.058;12.190;2023-07-13T05:07:54;96059.06;;;17.34;79.41
23677;BME280;31493;49.058;12.190;2023-07-13T05:10:22;96059.06;;;17.34;79.21
23677;BME280;31493;49.058;12.190;2023-07-13T05:12:49;96067.41;;;17.37;78.77
23677;BME280;31493;49.058;12.190;2023-07-13T05:15:16;96055.28;;;17.61;78.13
23677;BME280;31493;49.058;12.190;2023-07-13T05:17:46;96067.44;;;17.54;77.23
23677;BME280;31493;49.058;12.190;2023-07-13T05:20:15;96058.09;;;17.59;77.01
23677;BME280;31493;49.058;12.190;2023-07-13T05:22:43;96073.19;;;17.41;76.30
23677;BME280;31493;49.058;12.190;2023-07-13T05:25:12;96072.19;;;17.34;76.63
23677;BME280;31493;49.058;12.190;2023-07-13T05:27:39;96075.81;;;17.41;76.22
23677;BME280;31493;49.058;12.190;2023-07-13T05:30:07;96072.19;;;17.42;76.33
23677;BME280;31493;49.058;12.190;2023-07-13T05:32:36;96069.09;;;17.71;75.55
23677;BME280;31493;49.058;12.190;2023-07-13T05:35:04;96080.13;;;17.50;75.19
23677;BME280;31493;49.058;12.190;2023-07-13T05:37:32;96087.34;;;17.56;74.58
23677;BME280;31493;49.058;12.190;2023-07-13T05:40:00;96092.94;;;17.53;73.93
23677;BME280;31493;49.058;12.190;2023-07-13T05:42:27;96088.16;;;17.65;73.79
23677;BME280;31493;49.058;12.190;2023-07-13T05:44:54;96096.69;;;17.67;73.26
23677;BME280;31493;49.058;12.190;2023-07-13T05:47:21;96100.16;;;17.67;72.74
23677;BME280;31493;49.058;12.190;2023-07-13T05:49:48;96099.66;;;17.72;72.85
23677;BME280;31493;49.058;12.190;2023-07-13T05:52:15;96102.78;;;17.67;72.80
23677;BME280;31493;49.058;12.190;2023-07-13T05:54:43;96099.34;;;17.59;70.31
23677;BME280;31493;49.058;12.190;2023-07-13T05:57:10;96104.44;;;17.60;70.33
23677;BME280;31493;49.058;12.190;2023-07-13T05:59:37;96095.22;;;17.64;69.81
23677;BME280;31493;49.058;12.190;2023-07-13T06:02:05;96099.31;;;17.83;69.70
23677;BME280;31493;49.058;12.190;2023-07-13T06:04:32;96106.22;;;17.68;69.06
23677;BME280;31493;49.058;12.190;2023-07-13T06:06:59;96096.88;;;17.57;69.21
23677;BME280;31493;49.058;12.190;2023-07-13T06:09:26;96111.50;;;17.60;67.96
23677;BME280;31493;49.058;12.190;2023-07-13T06:11:55;96103.28;;;17.71;68.82
23677;BME280;31493;49.058;12.190;2023-07-13T06:14:22;96107.75;;;17.62;69.00
23677;BME280;31493;49.058;12.190;2023-07-13T06:16:49;96102.13;;;17.74;68.29
23677;BME280;31493;49.058;12.190;2023-07-13T06:19:16;96116.25;;;17.73;68.37
23677;BME280;31493;49.058;12.190;2023-07-13T06:21:43;96107.88;;;17.93;67.49
23677;BME280;31493;49.058;12.190;2023-07-13T06:24:10;96108.94;;;18.15;66.69
23677;BME280;31493;49.058;12.190;2023-07-13T06:26:37;96104.50;;;18.16;65.36
23677;BME280;31493;49.058;12.190;2023-07-13T06:29:05;96110.59;;;18.25;64.95
23677;BME280;31493;49.058;12.190;2023-07-13T06:31:32;96103.50;;;18.25;65.13
23677;BME280;31493;49.058;12.190;2023-07-13T06:33:59;96106.03;;;18.02;63.85
23677;BME280;31493;49.058;12.190;2023-07-13T06:36:26;96107.50;;;18.05;64.91
23677;BME280;31493;49.058;12.190;2023-07-13T06:38:54;96117.41;;;17.95;64.25
23677;BME280;31493;49.058;12.190;2023-07-13T06:41:21;96118.69;;;17.99;64.84
23677;BME280;31493;49.058;12.190;2023-07-13T06:43:48;96122.63;;;18.03;64.35
23677;BME280;31493;49.058;12.190;2023-07-13T06:46:16;96126.44;;;18.00;64.59
23677;BME280;31493;49.058;12.190;2023-07-13T06:48:43;96116.19;;;18.13;64.19
23677;BME280;31493;49.058;12.190;2023-07-13T06:51:10;96122.47;;;18.12;63.12
23677;BME280;31493;49.058;12.190;2023-07-13T06:53:37;96125.53;;;18.40;63.86
23677;BME280;31493;49.058;12.190;2023-07-13T06:56:04;96121.22;;;18.48;63.34
23677;BME280;31493;49.058;12.190;2023-07-13T06:58:33;96117.94;;;18.45;61.99
23677;BME280;31493;49.058;12.190;2023-07-13T07:01:00;96126.38;;;19.03;62.32
23677;BME280;31493;49.058;12.190;2023-07-13T07:03:28;96116.16;;;18.77;61.49
23677;BME280;31493;49.058;12.190;2023-07-13T07:06:00;96121.00;;;18.96;62.17
23677;BME280;31493;49.058;12.190;2023-07-13T07:08:27;96131.59;;;18.88;60.13
23677;BME280;31493;49.058;12.190;2023-07-13T07:10:54;96131.25;;;18.91;60.34
23677;BME280;31493;49.058;12.190;2023-07-13T07:13:21;96134.34;;;18.95;60.69
23677;BME280;31493;49.058;12.190;2023-07-13T07:15:50;96125.63;;;18.94;59.79
23677;BME280;31493;49.058;12.190;2023-07-13T07:18:17;96127.84;;;19.14;58.86
23677;BME280;31493;49.058;12.190;2023-07-13T07:20:46;96142.50;;;19.08;59.21
23677;BME280;31493;49.058;12.190;2023-07-13T07:23:13;96138.41;;;19.06;58.26
23677;BME280;31493;49.058;12.190;2023-07-13T07:25:40;96136.94;;;19.34;58.71
23677;BME280;31493;49.058;12.190;2023-07-13T07:28:09;96142.47;;;19.47;58.21
23677;BME280;31493;49.058;12.190;2023-07-13T07:30:36;96147.16;;;19.60;58.48
23677;BME280;31493;49.058;12.190;2023-07-13T07:33:03;96141.09;;;19.74;56.94
23677;BME280;31493;49.058;12.190;2023-07-13T07:35:30;96133.88;;;19.68;56.15
23677;BME280;31493;49.058;12.190;2023-07-13T07:37:59;96143.44;;;19.92;55.97
23677;BME280;31493;49.058;12.190;2023-07-13T07:40:26;96144.66;;;20.04;53.96
23677;BME280;31493;49.058;12.190;2023-07-13T07:42:53;96154.22;;;20.05;52.75
23677;BME280;31493;49.058;12.190;2023-07-13T07:45:20;96163.97;;;20.20;53.35
23677;BME280;31493;49.058;12.190;2023-07-13T07:47:47;96148.78;;;20.51;52.32
23677;BME280;31493;49.058;12.190;2023-07-13T07:50:15;96156.25;;;20.33;52.78
23677;BME280;31493;49.058;12.190;2023-07-13T07:52:42;96152.22;;;19.85;52.10
23677;BME280;31493;49.058;12.190;2023-07-13T07:55:11;96162.78;;;19.62;52.52
23677;BME280;31493;49.058;12.190;2023-07-13T07:57:38;96160.91;;;19.93;52.69
23677;BME280;31493;49.058;12.190;2023-07-13T08:00:06;96154.25;;;20.35;52.15
23677;BME280;31493;49.058;12.190;2023-07-13T08:02:33;96164.81;;;20.20;51.62
23677;BME280;31493;49.058;12.190;2023-07-13T08:05:00;96167.00;;;19.94;52.43
23677;BME280;31493;49.058;12.190;2023-07-13T08:07:28;96171.25;;;20.18;53.33
23677;BME280;31493;49.058;12.190;2023-07-13T08:09:56;96164.75;;;20.58;52.51
23677;BME280;31493;49.058;12.190;2023-07-13T08:12:25;96163.63;;;20.23;51.09
23677;BME280;31493;49.058;12.190;2023-07-13T08:14:52;96172.28;;;20.46;52.50
23677;BME280;31493;49.058;12.190;2023-07-13T08:17:23;96175.47;;;20.56;50.07
23677;BME280;31493;49.058;12.190;2023-07-13T08:19:50;96166.09;;;20.54;48.43
23677;BME280;31493;49.058;12.190;2023-07-13T08:22:17;96185.78;;;20.51;48.46
23677;BME280;31493;49.058;12.190;2023-07-13T08:24:44;96174.84;;;20.40;47.53
23677;BME280;31493;49.058;12.190;2023-07-13T08:27:13;96170.78;;;20.67;48.43
23677;BME280;31493;49.058;12.190;2023-07-13T08:29:41;96186.72;;;20.88;47.84
23677;BME280;31493;49.058;12.190;2023-07-13T08:32:08;96190.63;;;20.92;47.97
23677;BME280;31493;49.058;12.190;2023-07-13T08:34:36;96195.72;;;21.08;47.91
23677;BME280;31493;49.058;12.190;2023-07-13T08:37:04;96191.47;;;21.29;47.35
23677;BME280;31493;49.058;12.190;2023-07-13T08:39:31;96188.81;;;21.29;49.39
23677;BME280;31493;49.058;12.190;2023-07-13T08:42:01;96182.00;;;21.34;47.73
23677;BME280;31493;49.058;12.190;2023-07-13T08:44:35;96199.03;;;21.32;45.60
23677;BME280;31493;49.058;12.190;2023-07-13T08:47:08;96192.75;;;21.33;45.28
23677;BME280;31493;49.058;12.190;2023-07-13T08:49:38;96195.66;;;21.23;44.19
23677;BME280;31493;49.058;12.190;2023-07-13T08:52:10;96196.75;;;21.44;43.96
23677;BME280;31493;49.058;12.190;2023-07-13T08:54:43;96213.66;;;21.13;44.04
23677;BME280;31493;49.058;12.190;2023-07-13T08:57:13;96204.75;;;21.50;45.21
23677;BME280;31493;49.058;12.190;2023-07-13T08:59:41;96207.91;;;21.39;45.43
23677;BME280;31493;49.058;12.190;2023-07-13T09:02:25;96220.72;;;21.42;44.38
23677;BME280;31493;49.058;12.190;2023-07-13T09:04:56;96219.75;;;21.43;43.93
23677;BME280;31493;49.058;12.190;2023-07-13T09:07:32;96223.84;;;21.67;43.44
23677;BME280;31493;49.058;12.190;2023-07-13T09:10:11;96224.00;;;21.80;42.43
23677;BME280;31493;49.058;12.190;2023-07-13T09:12:48;96219.63;;;21.51;40.01
23677;BME280;31493;49.058;12.190;2023-07-13T09:15:24;96206.16;;;21.68;41.13
23677;BME280;31493;49.058;12.190;2023-07-13T09:17:55;96226.06;;;21.85;41.83
23677;BME280;31493;49.058;12.190;2023-07-13T09:20:27;96225.56;;;21.75;42.47
23677;BME280;31493;49.058;12.190;2023-07-13T09:22:56;96224.13;;;22.15;43.02
23677;BME280;31493;49.058;12.190;2023-07-13T09:25:27;96215.66;;;22.82;41.64
23677;BME280;31493;49.058;12.190;2023-07-13T09:27:59;96223.19;;;22.51;40.63
23677;BME280;31493;49.058;12.190;2023-07-13T09:30:34;96219.16;;;22.55;40.71
23677;BME280;31493;49.058;12.190;2023-07-13T09:33:05;96227.03;;;21.77;41.39
23677;BME280;31493;49.058;12.190;2023-07-13T09:35:34;96221.00;;;21.47;42.61
23677;BME280;31493;49.058;12.190;2023-07-13T09:38:10;96231.19;;;20.84;43.16
23677;BME280;31493;49.058;12.190;2023-07-13T09:40:49;96218.47;;;21.24;43.82
23677;BME280;31493;49.058;12.190;2023-07-13T09:43:20;96222.00;;;21.46;41.04
23677;BME280;31493;49.058;12.190;2023-07-13T09:45:47;96222.19;;;21.81;42.61
23677;BME280;31493;49.058;12.190;2023-07-13T09:48:17;96221.28;;;21.95;41.66
23677;BME280;31493;49.058;12.190;2023-07-13T09:50:44;96213.59;;;22.00;39.29
23677;BME280;31493;49.058;12.190;2023-07-13T09:53:12;96229.16;;;21.88;38.56
23677;BME280;31493;49.058;12.190;2023-07-13T09:55:41;96227.13;;;21.90;39.55
23677;BME280;31493;49.058;12.190;2023-07-13T09:58:09;96223.72;;;22.67;38.53
23677;BME280;31493;49.058;12.190;2023-07-13T10:00:37;96229.31;;;22.51;34.96
23677;BME280;31493;49.058;12.190;2023-07-13T10:03:16;96242.41;;;22.31;34.07
23677;BME280;31493;49.058;12.190;2023-07-13T10:05:45;96234.97;;;22.41;35.30
23677;BME280;31493;49.058;12.190;2023-07-13T10:08:25;96236.28;;;22.31;33.80
23677;BME280;31493;49.058;12.190;2023-07-13T10:10:58;96236.22;;;22.52;37.13
23677;BME280;31493;49.058;12.190;2023-07-13T10:13:29;96231.31;;;22.21;34.13
23677;BME280;31493;49.058;12.190;2023-07-13T10:15:57;96224.44;;;22.83;36.36
23677;BME280;31493;49.058;12.190;2023-07-13T10:18:28;96241.91;;;23.46;34.82
23677;BME280;31493;49.058;12.190;2023-07-13T10:21:08;96232.78;;;23.21;36.31
23677;BME280;31493;49.058;12.190;2023-07-13T10:23:37;96231.56;;;23.23;34.62
23677;BME280;31493;49.058;12.190;2023-07-13T10:26:11;96226.75;;;22.92;35.09
23677;BME280;31493;49.058;12.190;2023-07-13T10:28:40;96226.69;;;22.58;36.00
23677;BME280;31493;49.058;12.190;2023-07-13T10:31:12;96226.41;;;23.57;35.19
23677;BME280;31493;49.058;12.190;2023-07-13T10:33:41;96224.88;;;24.02;37.00
23677;BME280;31493;49.058;12.190;2023-07-13T10:36:15;96228.50;;;23.94;35.69
23677;BME280;31493;49.058;12.190;2023-07-13T10:38:46;96237.22;;;23.14;34.42
23677;BME280;31493;49.058;12.190;2023-07-13T10:41:17;96228.47;;;23.68;36.82
23677;BME280;31493;49.058;12.190;2023-07-13T10:43:47;96223.97;;;23.62;34.65
23677;BME280;31493;49.058;12.190;2023-07-13T10:46:19;96232.13;;;22.78;32.88
23677;BME280;31493;49.058;12.190;2023-07-13T10:48:50;96228.81;;;22.69;35.13
23677;BME280;31493;49.058;12.190;2023-07-13T10:51:19;96236.09;;;22.60;34.05
23677;BME280;31493;49.058;12.190;2023-07-13T10:53:49;96237.50;;;22.84;35.31
23677;BME280;31493;49.058;12.190;2023-07-13T10:56:38;96232.78;;;22.80;35.36
23677;BME280;31493;49.058;12.190;2023-07-13T10:59:11;96237.72;;;22.89;35.82
23677;BME280;31493;49.058;12.190;2023-07-13T11:01:41;96244.00;;;23.16;34.41
23677;BME280;31493;49.058;12.190;2023-07-13T11:04:14;96226.31;;;22.95;34.95
23677;BME280;31493;49.058;12.190;2023-07-13T11:06:43;96237.75;;;22.96;35.86
23677;BME280;31493;49.058;12.190;2023-07-13T11:09:18;96228.16;;;23.36;35.52
23677;BME280;31493;49.058;12.190;2023-07-13T11:11:45;96223.13;;;22.72;34.27
23677;BME280;31493;49.058;12.190;2023-07-13T11:14:32;96234.19;;;23.17;35.43
23677;BME280;31493;49.058;12.190;2023-07-13T11:17:37;96224.38;;;23.59;35.04
23677;BME280;31493;49.058;12.190;2023-07-13T11:20:23;96239.19;;;24.01;34.18
23677;BME280;31493;49.058;12.190;2023-07-13T11:23:18;96232.63;;;23.90;33.99
23677;BME280;31493;49.058;12.190;2023-07-13T11:25:45;96231.97;;;23.20;33.52
23677;BME280;31493;49.058;12.190;2023-07-13T11:28:16;96225.84;;;23.74;33.84
23677;BME280;31493;49.058;12.190;2023-07-13T11:30:46;96232.09;;;23.40;34.11
23677;BME280;31493;49.058;12.190;2023-07-13T11:33:16;96244.66;;;23.32;33.46
23677;BME280;31493;49.058;12.190;2023-07-13T11:35:52;96227.13;;;24.18;32.79
23677;BME280;31493;49.058;12.190;2023-07-13T11:38:22;96229.41;;;24.15;31.78
23677;BME280;31493;49.058;12.190;2023-07-13T11:40:51;96229.97;;;24.50;29.70
23677;BME280;31493;49.058;12.190;2023-07-13T11:43:20;96227.53;;;24.62;30.86
23677;BME280;31493;49.058;12.190;2023-07-13T11:45:49;96216.72;;;24.70;29.18
23677;BME280;31493;49.058;12.190;2023-07-13T11:48:22;96222.41;;;24.67;30.03
23677;BME280;31493;49.058;12.190;2023-07-13T11:50:57;96221.00;;;24.51;30.87
23677;BME280;31493;49.058;12.190;2023-07-13T11:53:28;96232.47;;;24.45;31.89
23677;BME280;31493;49.058;12.190;2023-07-13T11:55:56;96229.19;;;24.76;31.70
23677;BME280;31493;49.058;12.190;2023-07-13T11:58:26;96216.66;;;24.90;30.23
23677;BME280;31493;49.058;12.190;2023-07-13T12:00:58;96221.66;;;24.20;29.11
23677;BME280;31493;49.058;12.190;2023-07-13T12:03:27;96206.88;;;24.57;29.75
23677;BME280;31493;49.058;12.190;2023-07-13T12:06:02;96220.00;;;24.39;29.66
23677;BME280;31493;49.058;12.190;2023-07-13T12:08:37;96221.59;;;24.59;30.94
23677;BME280;31493;49.058;12.190;2023-07-13T12:11:14;96224.78;;;25.08;31.06
23677;BME280;31493;49.058;12.190;2023-07-13T12:13:44;96236.31;;;24.62;30.92
23677;BME280;31493;49.058;12.190;2023-07-13T12:16:15;96234.44;;;23.76;30.64
23677;BME280;31493;49.058;12.190;2023-07-13T12:18:43;96221.63;;;24.53;29.85
23677;BME280;31493;49.058;12.190;2023-07-13T12:21:17;96224.50;;;24.31;29.05
23677;BME280;31493;49.058;12.190;2023-07-13T12:23:48;96219.97;;;24.05;27.75
23677;BME280;31493;49.058;12.190;2023-07-13T12:26:17;96212.66;;;24.21;28.05
23677;BME280;31493;49.058;12.190;2023-07-13T12:28:47;96221.78;;;23.92;28.63
23677;BME280;31493;49.058;12.190;2023-07-13T12:31:25;96206.88;;;24.57;28.86
23677;BME280;31493;49.058;12.190;2023-07-13T12:34:00;96219.16;;;24.25;27.16
23677;BME280;31493;49.058;12.190;2023-07-13T12:36:34;96213.59;;;23.80;28.56
23677;BME280;31493;49.058;12.190;2023-07-13T12:39:12;96202.97;;;23.87;28.23
23677;BME280;31493;49.058;12.190;2023-07-13T12:41:40;96210.78;;;24.35;29.29
23677;BME280;31493;49.058;12.190;2023-07-13T12:44:11;96197.91;;;24.51;28.07
23677;BME280;31493;49.058;12.190;2023-07-13T12:46:39;96201.97;;;24.54;29.26
23677;BME280;31493;49.058;12.190;2023-07-13T12:49:07;96197.28;;;24.69;28.50
23677;BME280;31493;49.058;12.190;2023-07-13T12:51:36;96192.13;;;24.68;27.09
23677;BME280;31493;49.058;12.190;2023-07-13T12:54:14;96195.94;;;25.11;27.88
23677;BME280;31493;49.058;12.190;2023-07-13T12:56:42;96188.22;;;25.48;26.83
23677;BME280;31493;49.058;12.190;2023-07-13T12:59:16;96194.84;;;25.26;27.43
23677;BME280;31493;49.058;12.190;2023-07-13T13:01:45;96196.44;;;24.49;26.50